• Join FlightAware (Why Join?)
  • Login
  • US Flag 
06:53PM EST


 

Airport Tracker/Info


-or-


 

Live Flight TrackerFlight Track Log ✈ EJA898 ✈ 13-Apr-2013 ✈ KSDL - KSLC

Flight Track Log - Related Links

Times and Time Zones

All times are in EDT time to prevent confusion due to time zone crossing. See the EJA898 flight status page for this flight to view local times or setup timezone preferences in your user account.

Time Position Orientation Groundspeed Altitude Reporting Facility
EDT Latitude Longitude Course Direction KTS MPH feet Rate Location/Type
03:10PM 33.6167 -111.9333 292° West 185 213 2,500  Level Phoenix TRACON
03:11PM 33.6333 -111.9833 292° West 214 246 5,400 2,160 Climbing Phoenix TRACON
03:12PM 33.6531 -111.9922 339° North 225 259 5,600 1,980 Climbing Albuquerque Center
03:13PM 33.7061 -111.9450 37° Northeast 241 277 8,100 2,040 Climbing Albuquerque Center
03:14PM 33.7756 -111.9047 26° Northeast 278 320 9,900 1,680 Climbing Albuquerque Center
03:15PM 33.8589 -111.8517 28° Northeast 338 389 11,600 1,920 Climbing Albuquerque Center
03:16PM 33.9536 -111.7922 27° Northeast 386 444 13,900 2,700 Climbing Albuquerque Center
03:17PM 34.0625 -111.7258 27° Northeast 391 450 17,200 2,580 Climbing Albuquerque Center
03:18PM 34.1722 -111.6811 19° North 386 444 19,300 1,920 Climbing Albuquerque Center
03:19PM 34.2697 -111.6436 18° North 401 461 21,200 1,800 Climbing Albuquerque Center
03:20PM 34.3756 -111.6014 18° North 402 463 23,000 1,020 Climbing Albuquerque Center
03:21PM 34.4828 -111.5589 18° North 403 464 23,300 660 Climbing Albuquerque Center
03:22PM 34.6119 -111.5497 North 391 450 24,400 1,020 Climbing Albuquerque Center
03:23PM 34.7200 -111.5753 349° North 391 450 25,500 1,080 Climbing Albuquerque Center
03:24PM 34.8322 -111.6017 349° North 405 466 26,700 1,140 Climbing Albuquerque Center
03:25PM 34.9464 -111.6272 350° North 415 478 27,900 1,140 Climbing Albuquerque Center
03:26PM 35.0597 -111.6544 349° North 417 480 29,100 960 Climbing Albuquerque Center
03:27PM 35.1711 -111.6822 348° North 412 474 30,000 660 Climbing Albuquerque Center
03:28PM 35.2742 -111.7478 333° Northwest 408 470 30,500 840 Climbing Albuquerque Center
03:29PM 35.3736 -111.8053 335° Northwest 401 461 31,800 1,320 Climbing Albuquerque Center
03:30PM 35.4892 -111.8714 335° Northwest 389 448 33,300 1,020 Climbing Albuquerque Center
03:31PM 35.5842 -111.9269 335° Northwest 385 443 34,000 300 Climbing Albuquerque Center
03:32PM 35.6850 -111.9550 347° North 383 441 34,000  Level Albuquerque Center
03:33PM 35.7264 -111.9625 352° North 383 441 34,000  Level Los Angeles Center
03:34PM 35.8314 -111.9814 352° North 384 442 34,000  Level Los Angeles Center
03:35PM 35.9367 -111.9972 353° North 384 442 34,000  Level Los Angeles Center
03:36PM 36.0419 -112.0169 351° North 384 442 34,000  Level Los Angeles Center
03:37PM 36.1467 -112.0339 353° North 384 442 34,000  Level Los Angeles Center
03:38PM 36.2678 -112.0544 352° North 381 438 34,000  Level Los Angeles Center
03:39PM 36.3725 -112.0728 352° North 381 438 34,000  Level Los Angeles Center
03:40PM 36.4792 -112.0908 352° North 384 442 34,000  Level Los Angeles Center
03:41PM 36.5853 -112.1094 352° North 386 444 34,000  Level Los Angeles Center
03:42PM 36.7142 -112.1322 352° North 389 448 34,000  Level Los Angeles Center
03:43PM 36.8206 -112.1506 352° North 387 445 34,000  Level Los Angeles Center
03:44PM 36.9253 -112.1686 352° North 382 440 34,000  Level Los Angeles Center
03:45PM 37.0311 -112.1861 352° North 383 441 34,000  Level Los Angeles Center
03:46PM 37.1350 -112.2044 352° North 379 436 34,000  Level Los Angeles Center
03:47PM 37.2414 -112.2233 352° North 384 442 34,000  Level Los Angeles Center
03:48PM 37.3656 -112.2453 352° North 380 437 34,000  Level Los Angeles Center
03:48PM 37.3864 -112.2494 351° North 381 438 34,000  Level Salt Lake Center
03:49PM 37.4928 -112.2683 352° North 386 444 34,000  Level Salt Lake Center
03:50PM 37.6003 -112.2869 352° North 390 449 34,000  Level Salt Lake Center
03:51PM 37.7053 -112.3056 352° North 387 445 34,000  Level Salt Lake Center
03:52PM 37.8103 -112.3183 355° North 384 442 34,000  Level Salt Lake Center
03:53PM 37.9367 -112.3333 355° North 383 441 34,000  Level Salt Lake Center
03:54PM 38.0419 -112.3469 354° North 382 440 34,000  Level Salt Lake Center
03:55PM 38.1478 -112.3617 354° North 384 442 34,000 -420 Level Salt Lake Center
03:56PM 38.2547 -112.3744 355° North 387 445 33,200 -900 Descending Salt Lake Center
03:57PM 38.3639 -112.3872 355° North 392 451 32,200 -1,080 Descending Salt Lake Center
03:58PM 38.4706 -112.4011 354° North 388 447 31,100 -1,080 Descending Salt Lake Center
03:59PM 38.5797 -112.4147 354° North 392 451 30,100 -540 Descending Salt Lake Center
04:01PM 38.6928 -112.4286 355° North 404 465 30,000 -60 Descending Salt Lake Center
04:02PM 38.8308 -112.4469 354° North 415 478 30,000  Level Salt Lake Center
04:03PM 38.9458 -112.4606 355° North 417 480 30,000  Level Salt Lake Center
04:04PM 39.0631 -112.4764 354° North 422 486 30,000  Level Salt Lake Center
04:05PM 39.1792 -112.4908 354° North 422 486 30,000  Level Salt Lake Center
04:06PM 39.2828 -112.5022 355° North 416 479 30,000  Level Salt Lake Center
04:07PM 39.4247 -112.4644 12° North 438 504 30,000 -600 Level Salt Lake Center
04:08PM 39.5381 -112.4278 14° North 421 484 28,900 -1,860 Descending Salt Lake Center
04:09PM 39.6467 -112.3919 14° North 406 467 26,300 -2,460 Descending Salt Lake Center
04:10PM 39.7514 -112.3567 15° North 392 451 23,900 -2,460 Descending Salt Lake Center
04:11PM 39.8600 -112.3214 14° North 400 460 21,300 -2,520 Descending Salt Lake Center
04:12PM 39.9728 -112.2931 11° North 386 444 18,700 -2,100 Descending Salt Lake Center
04:13PM 40.0575 -112.2550 19° North 351 404 17,100 -1,500 Descending Salt Lake Center
04:14PM 40.1525 -112.2222 15° North 351 404 15,800 -1,200 Descending Salt Lake Center
04:15PM 40.2494 -112.1897 14° North 359 413 14,700 -840 Descending Salt Lake Center
04:16PM 40.3442 -112.1569 15° North 352 405 14,100 -600 Descending Salt Lake Center
04:17PM 40.4550 -112.1192 15° North 344 396 13,500 -960 Descending Salt Lake Center
04:18PM 40.5494 -112.0878 14° North 349 402 12,200 -1,200 Descending Salt Lake Center
04:19PM 40.6392 -112.0814 North 328 377 11,100 -600 Descending Salt Lake Center
04:20PM 40.7272 -112.0911 355° North 296 341 11,000 -300 Descending Salt Lake Center
04:21PM 40.7978 -112.0986 355° North 248 285 10,600 -840 Descending Salt Lake Center
04:22PM 40.8633 -112.1047 356° North 246 283 9,400 -780 Descending Salt Lake Center
04:23PM 40.9261 -112.0947 North 247 284 9,100 -360 Descending Salt Lake Center
04:24PM 40.9361 -111.9919 83° East 249 287 8,700 -1,140 Descending Salt Lake Center
04:25PM 40.8875 -111.9614 155° Southeast 220 253 6,700 -1,800 Descending Salt Lake Center
04:26PM 40.8378 -111.9631 181° South 170 196 5,300 -1,260 Descending Salt Lake Center
04:27PM 40.7936 -111.9622 179° South 132 152 4,200 -960 Descending Salt Lake Center
04:29PM 40.7833 -111.9667 159° South  Level FlightAware Approximate